Lakki Marwat Weather



Lakki Marwat's Current Weather

Temprature 19.08o scattered clouds

scattered clouds

Rain: 0 %

Min Temprature19.08o
Max Temprature19.08o
Humidity44
Wind Speed0.79 m/h
Sun Rise06:47:39
Sun Set18:11:09
Current Time: 27-Feb-2020 00:00:44
Lat/Lon: 32.61, 70.91




Lakki Marwat's Geo Location



Lakki Marwat's Weather Forecast

Time Overall Temp Min Temp Max Temp Humidity Wind Speed Rain
27-Feb-2020 (Thu)
02:00:00 overcast clouds 18.160 18.160 18.160 46 0.5 m/h 0 %
05:00:00 overcast clouds 17.430 17.430 17.430 44 2 m/h 0 %
08:00:00 scattered clouds 19.220 19.220 19.220 45 1.17 m/h 0 %
11:00:00 few clouds 23.420 23.420 23.420 28 0.53 m/h 0 %
14:00:00 clear sky 25.760 25.760 25.760 24 2.63 m/h 0 %
17:00:00 clear sky 25.560 25.560 25.560 26 2.96 m/h 0 %
20:00:00 clear sky 20.000 20.000 20.000 41 1.23 m/h 0 %
23:00:00 scattered clouds 19.780 19.780 19.780 42 2.8 m/h 0 %
28-Feb-2020 (Fri)
02:00:00 overcast clouds 17.190 17.190 17.190 54 1.26 m/h 0 %
05:00:00 broken clouds 15.560 15.560 15.560 58 1.23 m/h 0 %
08:00:00 few clouds 17.990 17.990 17.990 55 0.85 m/h 0 %
11:00:00 clear sky 22.040 22.040 22.040 40 2.91 m/h 0 %
14:00:00 light rain 24.170 24.170 24.170 33 4.52 m/h 19 %
17:00:00 light rain 23.530 23.530 23.530 34 4.26 m/h 25 %
20:00:00 light rain 18.560 18.560 18.560 55 2.62 m/h 94 %
23:00:00 light rain 15.980 15.980 15.980 61 8.44 m/h 87 %
29-Feb-2020 (Sat)
02:00:00 light rain 15.140 15.140 15.140 70 1.24 m/h 206 %
05:00:00 light rain 15.170 15.170 15.170 73 2.94 m/h 94 %
08:00:00 light rain 15.210 15.210 15.210 71 5.42 m/h 56 %
11:00:00 light rain 17.490 17.490 17.490 65 5.64 m/h 94 %
14:00:00 light rain 17.730 17.730 17.730 65 7.1 m/h 25 %
17:00:00 overcast clouds 17.370 17.370 17.370 65 7.24 m/h 0 %
20:00:00 few clouds 14.650 14.650 14.650 74 3.53 m/h 0 %
23:00:00 clear sky 13.450 13.450 13.450 79 1.13 m/h 0 %
01-Mar-2020 (Sun)
02:00:00 clear sky 12.830 12.830 12.830 79 1 m/h 0 %
05:00:00 clear sky 12.450 12.450 12.450 77 0.91 m/h 0 %
08:00:00 clear sky 15.830 15.830 15.830 66 0.91 m/h 0 %
11:00:00 clear sky 20.480 20.480 20.480 45 1.89 m/h 0 %
14:00:00 clear sky 23.340 23.340 23.340 37 3.02 m/h 0 %
17:00:00 clear sky 23.510 23.510 23.510 36 1.92 m/h 0 %
20:00:00 clear sky 18.230 18.230 18.230 55 0.09 m/h 0 %
23:00:00 clear sky 17.510 17.510 17.510 53 1.34 m/h 0 %
02-Mar-2020 (Mon)
02:00:00 broken clouds 16.170 16.170 16.170 59 0.59 m/h 0 %
05:00:00 broken clouds 15.370 15.370 15.370 60 0.55 m/h 0 %
08:00:00 scattered clouds 18.810 18.810 18.810 57 0.57 m/h 0 %
11:00:00 few clouds 23.650 23.650 23.650 35 1.45 m/h 0 %
14:00:00 clear sky 25.540 25.540 25.540 28 1.15 m/h 0 %
17:00:00 clear sky 25.560 25.560 25.560 28 2.31 m/h 0 %
20:00:00 clear sky 20.870 20.870 20.870 39 2.41 m/h 0 %
23:00:00 clear sky 19.410 19.410 19.410 45 1.74 m/h 0 %

Famous Cities (61)